Time;durP1;ratioP1;P1;durP2;ratioP2;P2;SDS_P1;SDS_P2;PMS_P1;PMS_P2;Temp;Humidity;BMP_temperature;BMP_pressure;BME280_temperature;BME280_humidity;BME280_pressure;Samples;Min_cycle;Max_cycle;Signal;HPM_P1;HPM_P2
2022/03/28 00:01:28;;;;;;;0.00;0.00;;;;;;;8.79;51.78;99490.56;5007117;28;20677;-58
2022/03/28 00:03:55;;;;;;;0.00;0.00;;;;;;;8.79;51.75;99496.63;4993656;28;20194;-58
2022/03/28 00:06:21;;;;;;;0.00;0.00;;;;;;;8.78;52.25;99491.50;4992585;28;20205;-58
2022/03/28 00:08:49;;;;;;;0.00;0.00;;;;;;;8.71;53.43;99485.97;4994396;28;20196;-57
2022/03/28 00:11:17;;;;;;;0.00;0.00;;;;;;;8.60;54.18;99484.16;4993781;28;20185;-58
2022/03/28 00:13:45;;;;;;;0.00;0.00;;;;;;;8.46;52.51;99484.38;4994317;28;20196;-58
2022/03/28 00:16:12;;;;;;;0.00;0.00;;;;;;;8.71;52.85;99478.16;4993598;28;20212;-58
2022/03/28 00:18:40;;;;;;;0.00;0.00;;;;;;;8.49;52.95;99485.00;4994028;28;20202;-58
2022/03/28 00:21:07;;;;;;;0.00;0.00;;;;;;;8.56;51.76;99475.78;4993712;28;20187;-58
2022/03/28 00:23:34;;;;;;;0.00;0.00;;;;;;;8.61;53.07;99477.19;4994205;28;20236;-58
2022/03/28 00:26:00;;;;;;;0.00;0.00;;;;;;;8.45;53.72;99475.72;4993793;28;20195;-58
2022/03/28 00:28:27;;;;;;;0.00;0.00;;;;;;;8.28;53.08;99475.22;4993824;28;20193;-58
2022/03/28 00:30:54;;;;;;;0.00;0.00;;;;;;;8.25;52.93;99465.03;4993455;28;20188;-58
2022/03/28 00:33:21;;;;;;;0.00;0.00;;;;;;;8.33;52.68;99467.09;4992747;28;20201;-58
2022/03/28 00:35:49;;;;;;;0.00;0.00;;;;;;;8.41;51.72;99467.34;4992789;28;20250;-57
2022/03/28 00:38:16;;;;;;;0.00;0.00;;;;;;;8.25;52.32;99457.25;4993458;28;20216;-58
2022/03/28 00:40:43;;;;;;;0.00;0.00;;;;;;;8.20;53.37;99459.34;4993593;28;20377;-58
2022/03/28 00:43:11;;;;;;;0.00;0.00;;;;;;;8.10;53.02;99456.63;4993643;28;20185;-58
2022/03/28 00:45:39;;;;;;;0.00;0.00;;;;;;;8.03;53.95;99452.81;4993422;28;20185;-58
2022/03/28 00:48:07;;;;;;;0.00;0.00;;;;;;;8.12;53.78;99456.50;4993195;28;20222;-58
2022/03/28 00:50:35;;;;;;;0.00;0.00;;;;;;;8.03;54.05;99458.03;4993138;28;20270;-58
2022/03/28 00:53:05;;;;;;;0.00;0.00;;;;;;;8.13;52.50;99452.94;4997509;28;20230;-57
2022/03/28 00:55:33;;;;;;;0.00;0.00;;;;;;;8.17;53.84;99451.78;5011229;28;20202;-57
2022/03/28 00:57:59;;;;;;;0.00;0.00;;;;;;;8.05;53.43;99452.69;5012793;28;20305;-58
2022/03/28 01:00:26;;;;;;;0.00;0.00;;;;;;;8.10;53.06;99454.03;5012115;28;20192;-58
2022/03/28 01:02:53;;;;;;;0.00;0.00;;;;;;;8.12;52.07;99459.94;4995262;28;20204;-58
2022/03/28 01:05:20;;;;;;;0.00;0.00;;;;;;;8.01;52.12;99456.47;4992601;28;20188;-58
2022/03/28 01:07:47;;;;;;;0.00;0.00;;;;;;;7.90;51.94;99452.06;4993305;28;20209;-58
2022/03/28 01:10:15;;;;;;;0.00;0.00;;;;;;;7.90;53.78;99458.13;4992803;28;20193;-58
2022/03/28 01:12:43;;;;;;;0.00;0.00;;;;;;;7.91;54.70;99453.72;4992957;28;20699;-58
2022/03/28 01:15:11;;;;;;;0.00;0.00;;;;;;;7.78;54.22;99456.41;4991457;28;20196;-58
2022/03/28 01:20:26;;;;;;;0.00;0.00;;;;;;;7.90;53.79;99452.91;4991140;28;20215;-57
2022/03/28 01:22:54;;;;;;;0.00;0.00;;;;;;;7.79;53.60;99448.50;4991901;28;20193;-58
2022/03/28 01:25:24;;;;;;;0.00;0.00;;;;;;;7.64;53.56;99442.66;4992030;28;20189;-58
2022/03/28 01:27:52;;;;;;;0.00;0.00;;;;;;;7.75;53.28;99446.25;4992295;28;20224;-59
2022/03/28 01:30:20;;;;;;;0.00;0.00;;;;;;;7.71;54.09;99443.03;4992223;28;20200;-58
2022/03/28 01:32:47;;;;;;;0.00;0.00;;;;;;;7.61;53.87;99435.09;4992879;28;20192;-58
2022/03/28 01:35:24;;;;;;;0.00;0.00;;;;;;;7.66;54.12;99429.53;4992110;28;20199;-58
2022/03/28 01:37:51;;;;;;;0.00;0.00;;;;;;;7.62;53.89;99418.56;4992327;28;20209;-58
2022/03/28 01:40:19;;;;;;;0.00;0.00;;;;;;;7.72;54.62;99429.09;4992634;28;20224;-58
2022/03/28 01:42:48;;;;;;;0.00;0.00;;;;;;;7.59;54.27;99428.31;4992651;28;20188;-58
2022/03/28 01:45:15;;;;;;;0.00;0.00;;;;;;;7.59;54.15;99420.53;4992285;28;20271;-58
2022/03/28 01:47:41;;;;;;;0.00;0.00;;;;;;;7.62;53.81;99420.31;4992407;28;20247;-58
2022/03/28 01:50:09;;;;;;;0.00;0.00;;;;;;;7.53;54.77;99425.22;4991899;28;20197;-58
2022/03/28 01:52:35;;;;;;;0.00;0.00;;;;;;;7.57;53.98;99414.63;4992316;28;20188;-58
2022/03/28 01:55:02;;;;;;;0.00;0.00;;;;;;;7.60;53.14;99417.00;5003165;28;20688;-58
2022/03/28 01:57:30;;;;;;;0.00;0.00;;;;;;;7.75;52.89;99418.47;5011033;28;20277;-58
2022/03/28 01:59:57;;;;;;;0.00;0.00;;;;;;;7.62;54.97;99420.31;5011654;28;20196;-58
2022/03/28 02:02:23;;;;;;;0.00;0.00;;;;;;;7.71;53.15;99416.22;5011666;28;20210;-58
2022/03/28 02:04:50;;;;;;;0.00;0.00;;;;;;;7.49;53.87;99413.41;5011032;28;20656;-58
2022/03/28 02:07:17;;;;;;;0.00;0.00;;;;;;;7.45;52.33;99409.38;5010953;28;20274;-58
2022/03/28 02:09:45;;;;;;;0.00;0.00;;;;;;;7.56;53.47;99412.97;5010155;28;20200;-58
2022/03/28 02:12:13;;;;;;;0.00;0.00;;;;;;;7.53;53.79;99412.25;5011129;28;20275;-58
2022/03/28 02:14:41;;;;;;;0.00;0.00;;;;;;;7.63;53.51;99409.81;5011140;28;20533;-58
2022/03/28 02:17:08;;;;;;;0.00;0.00;;;;;;;7.73;52.30;99419.53;5011001;28;20206;-58
2022/03/28 02:19:34;;;;;;;0.00;0.00;;;;;;;7.59;52.98;99413.56;5011148;28;20211;-58
2022/03/28 02:22:01;;;;;;;0.00;0.00;;;;;;;7.50;54.23;99411.66;5011622;28;20196;-58
2022/03/28 02:24:28;;;;;;;0.00;0.00;;;;;;;7.31;53.77;99412.97;5011045;28;20688;-59
2022/03/28 02:26:55;;;;;;;0.00;0.00;;;;;;;7.40;54.38;99419.28;5011222;28;20226;-58
2022/03/28 02:29:21;;;;;;;0.00;0.00;;;;;;;7.37;54.23;99412.53;5011267;28;20195;-58
2022/03/28 02:31:50;;;;;;;0.00;0.00;;;;;;;7.32;54.06;99412.03;5010776;28;20199;-58
2022/03/28 02:34:16;;;;;;;0.00;0.00;;;;;;;7.22;55.15;99404.09;5010667;28;20187;-57
2022/03/28 02:36:43;;;;;;;0.00;0.00;;;;;;;7.12;55.44;99402.25;5010844;28;20683;-58
2022/03/28 02:39:10;;;;;;;0.00;0.00;;;;;;;7.09;54.74;99398.13;5011302;28;20299;-57
2022/03/28 02:41:39;;;;;;;0.00;0.00;;;;;;;7.14;55.04;99398.63;5010030;28;20311;-58
2022/03/28 02:44:05;;;;;;;0.00;0.00;;;;;;;7.08;55.50;99396.44;5010722;28;20196;-58
2022/03/28 02:46:32;;;;;;;0.00;0.00;;;;;;;7.06;56.02;99393.94;5010462;28;20211;-58
2022/03/28 02:49:00;;;;;;;0.00;0.00;;;;;;;6.99;56.22;99390.13;5011071;28;20561;-58
2022/03/28 02:51:27;;;;;;;0.00;0.00;;;;;;;6.91;55.49;99389.84;5010604;28;20221;-58
2022/03/28 02:53:54;;;;;;;0.00;0.00;;;;;;;6.90;55.32;99386.44;5010535;28;20556;-58
2022/03/28 02:56:20;;;;;;;0.00;0.00;;;;;;;6.79;53.82;99382.00;5008908;28;20265;-58
2022/03/28 02:58:48;;;;;;;0.00;0.00;;;;;;;6.90;55.25;99373.47;4992028;28;20264;-58
2022/03/28 03:01:15;;;;;;;0.00;0.00;;;;;;;6.87;55.82;99376.28;4990745;28;20199;-57
2022/03/28 03:03:42;;;;;;;0.00;0.00;;;;;;;6.86;55.76;99373.78;5004690;28;20664;-58
2022/03/28 03:06:10;;;;;;;0.00;0.00;;;;;;;6.77;56.06;99375.25;5008630;28;20195;-58
2022/03/28 03:08:36;;;;;;;0.00;0.00;;;;;;;6.78;56.96;99382.09;5009351;28;20695;-58
2022/03/28 03:11:03;;;;;;;0.00;0.00;;;;;;;6.84;57.22;99376.47;5008972;28;20197;-58
2022/03/28 03:13:30;;;;;;;0.00;0.00;;;;;;;6.73;57.31;99379.84;5010222;28;20241;-58
2022/03/28 03:15:58;;;;;;;0.00;0.00;;;;;;;6.62;57.60;99380.56;5010648;28;20187;-58
2022/03/28 03:18:25;;;;;;;0.00;0.00;;;;;;;6.49;57.49;99383.22;5010982;28;20306;-58
2022/03/28 03:20:52;;;;;;;0.00;0.00;;;;;;;6.49;58.50;99379.78;5010861;28;20684;-58
2022/03/28 03:23:20;;;;;;;0.00;0.00;;;;;;;6.37;58.71;99375.41;5011069;28;20255;-58
2022/03/28 03:25:48;;;;;;;0.00;0.00;;;;;;;6.31;59.22;99379.28;5010504;28;20198;-58
2022/03/28 03:28:15;;;;;;;0.00;0.00;;;;;;;6.31;59.07;99380.13;5010587;28;20211;-58
2022/03/28 03:30:42;;;;;;;0.00;0.00;;;;;;;6.29;59.66;99375.97;5010823;28;20192;-58
2022/03/28 03:33:09;;;;;;;0.00;0.00;;;;;;;6.17;59.22;99369.88;5010771;28;20242;-58
2022/03/28 03:35:36;;;;;;;0.00;0.00;;;;;;;6.07;59.79;99376.59;5010297;28;20213;-58
2022/03/28 03:38:04;;;;;;;0.00;0.00;;;;;;;6.07;61.40;99376.59;5007640;28;20298;-57
2022/03/28 03:40:32;;;;;;;0.00;0.00;;;;;;;6.14;62.50;99370.06;5006579;28;20210;-57
2022/03/28 03:42:59;;;;;;;0.00;0.00;;;;;;;6.19;61.41;99371.41;5003705;28;20305;-58
2022/03/28 03:45:26;;;;;;;0.00;0.00;;;;;;;6.09;60.69;99365.19;4999452;28;20191;-58
2022/03/28 03:47:52;;;;;;;0.00;0.00;;;;;;;5.99;60.53;99372.72;4998177;28;20219;-58
2022/03/28 03:50:19;;;;;;;0.00;0.00;;;;;;;6.02;61.08;99376.88;4999856;28;20188;-58
2022/03/28 03:52:47;;;;;;;0.00;0.00;;;;;;;6.13;59.13;99371.81;4999775;28;20285;-58
2022/03/28 03:55:14;;;;;;;0.00;0.00;;;;;;;6.31;58.12;99369.75;5007746;28;20201;-58
2022/03/28 03:57:42;;;;;;;0.00;0.00;;;;;;;6.22;59.16;99370.38;5000799;28;20250;-57
2022/03/28 04:00:10;;;;;;;0.00;0.00;;;;;;;6.12;59.24;99364.16;4999397;28;20238;-58
2022/03/28 04:02:40;;;;;;;0.00;0.00;;;;;;;6.04;59.09;99368.09;5000657;28;20650;-58
2022/03/28 04:05:08;;;;;;;0.00;0.00;;;;;;;5.97;59.82;99371.16;5004803;28;20235;-57
2022/03/28 04:07:35;;;;;;;0.00;0.00;;;;;;;5.98;60.61;99378.00;5009583;28;20258;-57
2022/03/28 04:10:02;;;;;;;0.00;0.00;;;;;;;6.08;61.59;99376.47;5009004;28;20198;-57
2022/03/28 04:12:28;;;;;;;0.00;0.00;;;;;;;5.96;61.41;99385.03;5009489;28;20619;-58
2022/03/28 04:14:59;;;;;;;0.00;0.00;;;;;;;5.87;61.61;99382.13;5000201;28;20287;-58
2022/03/28 04:17:26;;;;;;;0.00;0.00;;;;;;;5.84;61.78;99379.75;4999073;28;20283;-57
2022/03/28 04:19:53;;;;;;;0.00;0.00;;;;;;;5.75;61.57;99378.59;5000596;28;20362;-57
2022/03/28 04:22:23;;;;;;;0.00;0.00;;;;;;;5.72;62.31;99386.56;5005609;28;20189;-57
2022/03/28 04:24:50;;;;;;;0.00;0.00;;;;;;;5.72;62.38;99385.75;5005806;28;20195;-58
2022/03/28 04:27:16;;;;;;;0.00;0.00;;;;;;;5.67;62.86;99390.41;5009664;28;20414;-58
2022/03/28 04:29:43;;;;;;;0.00;0.00;;;;;;;5.61;62.84;99386.44;5011385;28;20185;-58
2022/03/28 04:32:12;;;;;;;0.00;0.00;;;;;;;5.63;62.83;99397.53;5014004;28;20201;-58
2022/03/28 04:34:39;;;;;;;0.00;0.00;;;;;;;5.60;63.66;99396.00;5013362;28;20199;-58
2022/03/28 04:37:06;;;;;;;0.00;0.00;;;;;;;5.55;63.82;99386.84;5013692;28;20233;-58
2022/03/28 04:39:32;;;;;;;0.00;0.00;;;;;;;5.55;64.00;99387.69;5013585;28;20326;-57
2022/03/28 04:41:59;;;;;;;0.00;0.00;;;;;;;5.56;64.94;99389.34;5013581;28;20245;-58
2022/03/28 04:44:26;;;;;;;0.00;0.00;;;;;;;5.50;65.04;99399.25;5013207;28;20198;-58
2022/03/28 04:46:53;;;;;;;0.00;0.00;;;;;;;5.45;64.70;99389.22;5013479;28;20215;-58
2022/03/28 04:49:21;;;;;;;0.00;0.00;;;;;;;5.47;64.26;99390.75;5013535;28;20189;-58
2022/03/28 04:51:48;;;;;;;0.00;0.00;;;;;;;5.40;65.05;99386.91;5012580;28;20197;-58
2022/03/28 04:54:15;;;;;;;0.00;0.00;;;;;;;5.31;65.38;99390.09;5012544;28;20202;-58
2022/03/28 04:56:43;;;;;;;0.00;0.00;;;;;;;5.27;66.29;99386.88;5012648;28;20214;-58
2022/03/28 04:59:11;;;;;;;0.00;0.00;;;;;;;5.23;66.90;99387.19;5012515;28;20210;-58
2022/03/28 05:01:37;;;;;;;0.00;0.00;;;;;;;5.29;66.02;99384.19;5012987;28;20274;-58
2022/03/28 05:04:05;;;;;;;0.00;0.00;;;;;;;5.21;65.92;99394.22;5012770;28;20262;-58
2022/03/28 05:06:33;;;;;;;0.00;0.00;;;;;;;5.19;67.74;99388.31;5013100;28;20307;-58
2022/03/28 05:09:00;;;;;;;0.00;0.00;;;;;;;5.11;67.77;99394.78;5012149;28;20662;-58
2022/03/28 05:11:26;;;;;;;0.00;0.00;;;;;;;5.08;67.46;99394.13;5011290;28;20243;-58
2022/03/28 05:13:53;;;;;;;0.00;0.00;;;;;;;5.10;67.50;99393.13;5012451;28;20200;-57
2022/03/28 05:16:20;;;;;;;0.00;0.00;;;;;;;5.04;66.62;99390.94;5012358;28;20263;-58
2022/03/28 05:18:47;;;;;;;0.00;0.00;;;;;;;5.05;66.60;99389.16;5012590;28;20596;-57
2022/03/28 05:21:13;;;;;;;0.00;0.00;;;;;;;5.06;67.74;99402.00;5012666;28;20202;-57
2022/03/28 05:23:42;;;;;;;0.00;0.00;;;;;;;5.08;67.29;99394.13;5013206;28;20187;-58
2022/03/28 05:26:08;;;;;;;0.00;0.00;;;;;;;5.17;67.65;99399.59;5011842;28;20187;-57
2022/03/28 05:28:35;;;;;;;0.00;0.00;;;;;;;5.15;66.62;99391.09;5012664;28;20257;-58
2022/03/28 05:31:02;;;;;;;0.00;0.00;;;;;;;5.25;67.81;99385.31;5012557;28;20202;-57
2022/03/28 05:33:29;;;;;;;0.00;0.00;;;;;;;5.32;68.07;99390.00;5012657;28;20652;-57
2022/03/28 05:35:56;;;;;;;0.00;0.00;;;;;;;5.40;67.42;99386.09;5012034;28;20196;-57
2022/03/28 05:38:23;;;;;;;0.00;0.00;;;;;;;5.43;68.06;99391.06;5012517;28;20554;-57
2022/03/28 05:40:51;;;;;;;0.00;0.00;;;;;;;5.38;67.94;99388.75;5019941;23;20762;-56
2022/03/28 05:43:19;;;;;;;0.00;0.00;;;;;;;5.40;67.10;99396.44;5008902;28;20778;-56
2022/03/28 05:45:46;;;;;;;0.00;0.00;;;;;;;5.46;67.23;99394.28;5007682;28;20671;-56
2022/03/28 05:48:13;;;;;;;0.00;0.00;;;;;;;5.50;68.10;99389.75;4997615;28;20196;-56
2022/03/28 05:50:40;;;;;;;0.00;0.00;;;;;;;5.49;68.40;99397.59;5001725;28;20282;-57
2022/03/28 05:53:06;;;;;;;0.00;0.00;;;;;;;5.55;67.19;99392.88;5012255;28;20192;-56
2022/03/28 05:55:33;;;;;;;0.00;0.00;;;;;;;5.55;67.08;99392.88;5011796;28;20198;-57
2022/03/28 05:58:01;;;;;;;0.00;0.00;;;;;;;5.59;66.41;99396.91;4998677;28;20188;-57
2022/03/28 06:00:28;;;;;;;0.00;0.00;;;;;;;5.71;67.42;99392.69;4999236;28;20225;-57
2022/03/28 06:02:57;;;;;;;0.00;0.00;;;;;;;5.76;67.66;99401.00;5002920;28;20803;-58
2022/03/28 06:05:24;;;;;;;0.00;0.00;;;;;;;5.82;66.09;99397.19;5011436;28;20185;-58
2022/03/28 06:07:51;;;;;;;0.00;0.00;;;;;;;5.93;66.58;99395.63;5011890;28;20184;-58
2022/03/28 06:10:18;;;;;;;0.00;0.00;;;;;;;6.06;65.86;99399.06;5010902;28;20264;-58
2022/03/28 06:12:44;;;;;;;0.00;0.00;;;;;;;6.09;66.84;99395.47;5011737;28;20656;-58
2022/03/28 06:15:12;;;;;;;0.00;0.00;;;;;;;6.10;66.78;99399.72;5011314;28;20189;-58
2022/03/28 06:17:40;;;;;;;0.00;0.00;;;;;;;6.16;65.56;99399.31;5012130;28;20213;-58
2022/03/28 06:20:08;;;;;;;0.00;0.00;;;;;;;6.17;65.27;99394.00;5011029;28;20301;-58
2022/03/28 06:22:35;;;;;;;0.00;0.00;;;;;;;6.22;65.97;99396.31;5003290;28;20198;-58
2022/03/28 06:25:03;;;;;;;0.00;0.00;;;;;;;6.28;65.86;99401.06;4994559;28;20201;-58
2022/03/28 06:27:30;;;;;;;0.00;0.00;;;;;;;6.32;66.01;99384.38;5001683;28;20611;-58
2022/03/28 06:29:57;;;;;;;0.00;0.00;;;;;;;6.44;66.93;99400.00;5002646;28;20231;-58
2022/03/28 06:32:25;;;;;;;0.00;0.00;;;;;;;6.44;66.66;99392.22;5011799;28;20191;-58
2022/03/28 06:34:52;;;;;;;0.00;0.00;;;;;;;6.47;67.62;99397.19;5011208;28;20186;-57
2022/03/28 06:37:23;;;;;;;0.00;0.00;;;;;;;6.51;66.22;99398.66;5011483;28;20195;-58
2022/03/28 06:39:50;;;;;;;0.00;0.00;;;;;;;6.57;67.68;99392.22;5010575;28;20584;-58
2022/03/28 06:42:17;;;;;;;0.00;0.00;;;;;;;6.59;68.40;99388.56;5011429;28;20241;-57
2022/03/28 06:44:44;;;;;;;0.00;0.00;;;;;;;6.65;66.54;99397.72;5008775;28;20188;-58
2022/03/28 06:47:11;;;;;;;0.00;0.00;;;;;;;6.77;67.02;99398.59;4999825;28;20202;-58
2022/03/28 06:49:40;;;;;;;0.00;0.00;;;;;;;6.86;66.54;99395.38;4998163;28;20232;-58
2022/03/28 06:52:08;;;;;;;0.00;0.00;;;;;;;6.90;66.09;99389.03;5002203;28;20231;-58
2022/03/28 06:54:35;;;;;;;0.00;0.00;;;;;;;7.01;66.92;99384.84;5010142;28;20209;-58
2022/03/28 06:57:02;;;;;;;0.00;0.00;;;;;;;7.09;68.04;99390.31;5010561;28;20647;-57
2022/03/28 06:59:29;;;;;;;0.00;0.00;;;;;;;7.16;66.49;99391.53;5010921;28;20309;-58
2022/03/28 07:01:57;;;;;;;0.00;0.00;;;;;;;7.24;64.71;99394.41;5010689;28;20187;-57
2022/03/28 07:04:24;;;;;;;0.00;0.00;;;;;;;7.36;65.16;99386.69;5010774;28;20667;-58
2022/03/28 07:06:52;;;;;;;0.00;0.00;;;;;;;7.46;64.13;99392.03;5010995;28;20190;-58
2022/03/28 07:09:19;;;;;;;0.00;0.00;;;;;;;7.52;63.84;99382.00;5010893;28;20195;-58
2022/03/28 07:11:46;;;;;;;0.00;0.00;;;;;;;7.62;63.93;99383.94;5010422;28;20195;-58
2022/03/28 07:14:16;;;;;;;0.00;0.00;;;;;;;7.71;62.88;99385.84;5010726;28;20722;-58
2022/03/28 07:16:43;;;;;;;0.00;0.00;;;;;;;7.81;64.58;99384.22;5010889;28;20213;-57
2022/03/28 07:19:10;;;;;;;0.00;0.00;;;;;;;7.89;63.94;99385.44;5010785;28;20218;-58
2022/03/28 07:21:37;;;;;;;0.00;0.00;;;;;;;7.93;64.90;99379.91;5010017;28;20202;-58
2022/03/28 07:24:06;;;;;;;0.00;0.00;;;;;;;7.99;64.89;99383.78;5010343;28;20254;-58
2022/03/28 07:26:32;;;;;;;0.00;0.00;;;;;;;8.09;63.66;99389.97;5010819;28;20191;-58
2022/03/28 07:29:02;;;;;;;0.00;0.00;;;;;;;8.25;62.70;99384.41;5010902;28;20191;-57
2022/03/28 07:31:29;;;;;;;0.00;0.00;;;;;;;8.41;62.24;99380.63;5009987;28;20215;-58
2022/03/28 07:34:29;;;;;;;0.00;0.00;;;;;;;8.60;61.04;99387.06;5000556;28;20251;-58
2022/03/28 07:36:43;;;;;;;0.00;0.00;;;;;;;8.80;61.03;99383.72;5001193;28;20210;-58
2022/03/28 07:39:11;;;;;;;0.00;0.00;;;;;;;8.97;61.26;99385.00;4998756;28;20683;-58
2022/03/28 07:41:38;;;;;;;0.00;0.00;;;;;;;9.16;60.98;99386.94;5006648;28;20675;-58
2022/03/28 07:44:05;;;;;;;0.00;0.00;;;;;;;9.36;60.65;99386.31;5010314;28;20183;-58
2022/03/28 07:46:33;;;;;;;0.00;0.00;;;;;;;9.54;59.06;99389.19;5010475;28;20191;-58
2022/03/28 07:49:00;;;;;;;0.00;0.00;;;;;;;9.69;59.04;99385.31;5010750;28;20181;-58
2022/03/28 07:51:26;;;;;;;0.00;0.00;;;;;;;9.87;58.88;99390.78;5009080;28;20207;-58
2022/03/28 07:53:54;;;;;;;0.00;0.00;;;;;;;10.01;59.87;99384.44;5009866;28;20688;-58
2022/03/28 07:56:22;;;;;;;0.00;0.00;;;;;;;10.23;59.43;99389.63;5009710;28;20240;-58
2022/03/28 07:58:49;;;;;;;0.00;0.00;;;;;;;10.24;58.48;99386.88;5010343;28;20197;-58
2022/03/28 08:01:16;;;;;;;0.00;0.00;;;;;;;10.41;57.62;99382.88;5009510;28;20300;-58
2022/03/28 08:03:42;;;;;;;0.00;0.00;;;;;;;10.43;57.33;99377.50;5010732;28;20191;-58
2022/03/28 08:06:12;;;;;;;0.00;0.00;;;;;;;10.48;56.26;99378.78;5013739;28;20187;-58
2022/03/28 08:08:40;;;;;;;0.00;0.00;;;;;;;10.58;56.23;99380.59;5014331;28;20650;-58
2022/03/28 08:11:07;;;;;;;0.00;0.00;;;;;;;10.73;55.38;99378.44;5013561;28;20293;-58
2022/03/28 08:13:36;;;;;;;0.00;0.00;;;;;;;10.80;53.74;99368.28;5014283;28;20214;-58
2022/03/28 08:16:03;;;;;;;0.00;0.00;;;;;;;10.84;53.81;99367.91;5013581;28;20182;-58
2022/03/28 08:18:30;;;;;;;0.00;0.00;;;;;;;10.91;51.93;99362.94;5014088;28;20255;-58
2022/03/28 08:20:57;;;;;;;0.00;0.00;;;;;;;10.99;52.29;99359.69;5009843;28;20718;-58
2022/03/28 08:23:26;;;;;;;0.00;0.00;;;;;;;11.12;52.44;99360.25;4994102;28;20200;-58
2022/03/28 08:25:53;;;;;;;0.00;0.00;;;;;;;11.20;52.55;99346.47;5002708;28;20223;-58
2022/03/28 08:28:20;;;;;;;0.00;0.00;;;;;;;11.31;53.08;99346.34;5005237;28;20193;-58
2022/03/28 08:30:48;;;;;;;0.00;0.00;;;;;;;11.47;51.46;99347.59;5004520;28;20214;-58
2022/03/28 08:33:15;;;;;;;0.00;0.00;;;;;;;11.55;53.09;99344.25;5013851;28;20189;-58
2022/03/28 08:35:42;;;;;;;0.00;0.00;;;;;;;11.70;51.84;99345.50;5013632;28;20196;-58
2022/03/28 08:38:09;;;;;;;0.00;0.00;;;;;;;11.76;52.41;99351.94;5013618;28;20221;-58
2022/03/28 08:40:36;;;;;;;0.00;0.00;;;;;;;11.81;51.72;99340.09;5012812;28;20228;-58
2022/03/28 08:43:04;;;;;;;0.00;0.00;;;;;;;11.85;52.67;99342.44;4999920;28;20423;-58
2022/03/28 08:45:31;;;;;;;0.00;0.00;;;;;;;11.96;52.59;99340.47;4974121;28;20655;-58
2022/03/28 08:48:01;;;;;;;0.00;0.00;;;;;;;12.09;54.04;99349.81;4979981;28;20253;-58
2022/03/28 08:50:28;;;;;;;0.00;0.00;;;;;;;12.14;53.46;99339.75;4986511;28;20281;-59
2022/03/28 08:52:55;;;;;;;0.00;0.00;;;;;;;12.19;53.18;99348.00;4977309;28;20668;-59
2022/03/28 08:55:22;;;;;;;0.00;0.00;;;;;;;12.24;52.44;99350.19;4983456;28;20294;-59
2022/03/28 08:57:49;;;;;;;0.00;0.00;;;;;;;12.35;52.68;99349.19;4974924;28;20273;-58
2022/03/28 09:00:16;;;;;;;0.00;0.00;;;;;;;12.42;51.66;99347.63;4973195;28;20698;-59
2022/03/28 09:02:46;;;;;;;0.00;0.00;;;;;;;12.49;50.98;99346.09;4974235;28;20187;-58
2022/03/28 09:05:15;;;;;;;0.00;0.00;;;;;;;12.65;50.17;99352.50;4973058;28;20198;-58
2022/03/28 09:07:42;;;;;;;0.00;0.00;;;;;;;12.69;49.73;99356.47;4973732;28;20190;-59
2022/03/28 09:10:15;;;;;;;0.00;0.00;;;;;;;12.76;48.94;99354.88;4985859;28;20218;-58
2022/03/28 09:12:57;;;;;;;0.00;0.00;;;;;;;12.79;47.91;99359.84;4993949;28;20655;-59
2022/03/28 09:15:24;;;;;;;0.00;0.00;;;;;;;12.91;47.12;99354.38;4983021;28;20191;-58
2022/03/28 09:17:56;;;;;;;0.00;0.00;;;;;;;12.94;47.02;99352.31;4987648;28;20195;-58
2022/03/28 09:20:25;;;;;;;0.00;0.00;;;;;;;13.03;46.96;99355.00;4980013;28;20219;-59
2022/03/28 09:22:52;;;;;;;0.00;0.00;;;;;;;12.94;47.29;99341.81;4985756;28;20188;-59
2022/03/28 09:25:20;;;;;;;0.00;0.00;;;;;;;13.10;46.98;99338.53;4983324;28;20190;-59
2022/03/28 09:27:47;;;;;;;0.00;0.00;;;;;;;13.12;47.09;99335.78;4985249;28;20564;-59
2022/03/28 09:30:16;;;;;;;0.00;0.00;;;;;;;13.17;47.00;99337.94;4976130;28;20691;-59
2022/03/28 09:32:44;;;;;;;0.00;0.00;;;;;;;13.18;46.46;99329.09;4982457;28;20196;-59
2022/03/28 09:35:13;;;;;;;0.00;0.00;;;;;;;13.37;46.87;99323.69;4985301;28;20203;-59
2022/03/28 09:37:55;;;;;;;0.00;0.00;;;;;;;13.42;47.36;99323.25;4984426;28;20742;-59
2022/03/28 09:40:31;;;;;;;0.00;0.00;;;;;;;13.45;47.77;99325.56;4973346;28;20220;-59
2022/03/28 09:42:59;;;;;;;0.00;0.00;;;;;;;13.50;47.84;99318.06;4973296;28;20200;-59
2022/03/28 09:45:30;;;;;;;0.00;0.00;;;;;;;13.54;48.34;99314.16;4972810;28;20185;-59
2022/03/28 09:48:00;;;;;;;0.00;0.00;;;;;;;13.59;47.87;99311.09;4973355;28;20192;-59
2022/03/28 09:50:29;;;;;;;0.00;0.00;;;;;;;13.65;47.43;99307.88;4972489;28;20270;-59
2022/03/28 09:53:09;;;;;;;0.00;0.00;;;;;;;13.68;47.20;99310.19;4973130;28;20712;-59
2022/03/28 09:55:52;;;;;;;0.00;0.00;;;;;;;13.72;48.52;99308.06;4972554;28;20203;-59
2022/03/28 09:58:37;;;;;;;0.00;0.00;;;;;;;13.77;47.56;99303.19;4989918;28;20670;-59
2022/03/28 10:01:06;;;;;;;0.00;0.00;;;;;;;13.94;47.47;99309.34;5001422;28;20211;-59
2022/03/28 10:03:36;;;;;;;0.00;0.00;;;;;;;13.96;47.90;99298.69;5008019;28;20561;-59
2022/03/28 10:06:06;;;;;;;0.00;0.00;;;;;;;14.03;48.22;99297.91;5011701;28;20191;-59
2022/03/28 10:08:36;;;;;;;0.00;0.00;;;;;;;14.17;48.17;99290.41;5011612;28;20275;-59
2022/03/28 10:11:04;;;;;;;0.00;0.00;;;;;;;14.30;50.05;99296.06;5011018;28;20707;-59
2022/03/28 10:13:31;;;;;;;0.00;0.00;;;;;;;14.43;47.72;99292.16;5011803;28;20197;-59
2022/03/28 10:15:58;;;;;;;0.00;0.00;;;;;;;14.60;47.81;99280.72;5011524;28;20215;-59
2022/03/28 10:18:29;;;;;;;0.00;0.00;;;;;;;14.73;47.28;99277.63;5011666;28;20228;-59
2022/03/28 10:20:57;;;;;;;0.00;0.00;;;;;;;14.85;47.27;99270.25;5010839;28;20260;-59
2022/03/28 10:23:29;;;;;;;0.00;0.00;;;;;;;15.04;47.10;99269.13;5005932;28;20191;-58
2022/03/28 10:25:58;;;;;;;0.00;0.00;;;;;;;15.21;46.10;99263.88;4999792;28;20568;-58
2022/03/28 10:28:25;;;;;;;0.00;0.00;;;;;;;15.36;44.94;99258.75;5002529;28;20192;-58
2022/03/28 10:31:13;;;;;;;0.00;0.00;;;;;;;15.55;44.23;99256.75;4977053;28;20268;-58
2022/03/28 10:33:51;;;;;;;0.00;0.00;;;;;;;15.67;43.66;99259.84;4975860;28;20233;-59
2022/03/28 10:36:23;;;;;;;0.00;0.00;;;;;;;15.80;42.77;99252.25;4991222;28;20200;-58
2022/03/28 10:38:51;;;;;;;0.00;0.00;;;;;;;15.92;42.28;99248.28;4979333;28;20717;-58
2022/03/28 10:41:21;;;;;;;0.00;0.00;;;;;;;16.08;41.54;99255.28;4977670;28;20231;-59
2022/03/28 10:43:48;;;;;;;0.00;0.00;;;;;;;16.20;41.88;99247.84;4980251;28;20199;-59
2022/03/28 10:46:17;;;;;;;0.00;0.00;;;;;;;16.35;40.54;99257.66;4993080;28;20205;-59
2022/03/28 10:48:47;;;;;;;0.00;0.00;;;;;;;16.45;40.98;99246.91;5001944;28;20662;-59
2022/03/28 10:51:15;;;;;;;0.00;0.00;;;;;;;16.50;39.46;99242.72;5001475;28;20220;-59
2022/03/28 10:53:44;;;;;;;0.00;0.00;;;;;;;16.55;38.10;99244.88;5010943;28;20197;-59
2022/03/28 10:56:16;;;;;;;0.00;0.00;;;;;;;16.53;38.32;99234.47;5010330;28;20198;-59
2022/03/28 10:58:45;;;;;;;0.00;0.00;;;;;;;16.51;38.73;99233.84;5011132;28;20210;-58
2022/03/28 11:01:28;;;;;;;0.00;0.00;;;;;;;16.72;37.73;99242.13;5009199;28;20225;-59
2022/03/28 11:04:01;;;;;;;0.00;0.00;;;;;;;16.79;38.31;99229.88;5010606;28;20182;-58
2022/03/28 11:06:47;;;;;;;0.00;0.00;;;;;;;16.89;37.02;99224.34;5010810;28;20195;-59
2022/03/28 11:09:14;;;;;;;0.00;0.00;;;;;;;16.86;34.61;99222.91;5010444;28;20201;-58
2022/03/28 11:11:56;;;;;;;0.00;0.00;;;;;;;16.90;35.82;99218.91;4982222;28;20199;-58
2022/03/28 11:14:42;;;;;;;0.00;0.00;;;;;;;16.97;36.09;99217.22;4975430;28;20196;-58
2022/03/28 11:17:21;;;;;;;0.00;0.00;;;;;;;17.04;35.34;99206.78;4980468;28;20197;-58
2022/03/28 11:19:56;;;;;;;0.00;0.00;;;;;;;17.16;35.25;99214.28;4971031;28;20761;-58
2022/03/28 11:22:40;;;;;;;0.00;0.00;;;;;;;17.25;34.40;99207.91;4971674;28;20213;-58
2022/03/28 11:25:39;;;;;;;0.00;0.00;;;;;;;17.31;34.89;99204.56;4970674;28;20209;-58
2022/03/28 11:28:09;;;;;;;0.00;0.00;;;;;;;17.40;35.94;99202.66;4971634;28;20191;-58
2022/03/28 11:30:48;;;;;;;0.00;0.00;;;;;;;17.32;34.79;99192.19;4970832;28;20203;-58
2022/03/28 11:33:17;;;;;;;0.00;0.00;;;;;;;17.27;33.80;99184.81;4976260;28;20197;-59
2022/03/28 11:35:53;;;;;;;0.00;0.00;;;;;;;17.36;34.42;99186.38;4986661;28;20272;-58
2022/03/28 11:38:21;;;;;;;0.00;0.00;;;;;;;17.49;33.83;99185.72;4980007;28;20185;-58
2022/03/28 11:40:48;;;;;;;0.00;0.00;;;;;;;17.44;33.74;99169.63;4983659;28;20219;-58
2022/03/28 11:43:14;;;;;;;0.00;0.00;;;;;;;17.60;32.94;99173.06;4982776;28;20208;-58
2022/03/28 11:45:48;;;;;;;0.00;0.00;;;;;;;17.62;33.96;99165.78;4982714;28;20216;-58
2022/03/28 11:48:17;;;;;;;0.00;0.00;;;;;;;17.75;33.24;99160.69;4984445;28;20200;-58